Time;durP1;ratioP1;P1;durP2;ratioP2;P2;SDS_P1;SDS_P2;PMS_P1;PMS_P2;Temp;Humidity;BMP_temperature;BMP_pressure;BME280_temperature;BME280_humidity;BME280_pressure;Samples;Min_cycle;Max_cycle;Signal;HPM_P1;HPM_P2
2023/10/24 00:07:12;;;;;;;4.30;2.70;;;9.80;99.90;;;;;;25342721;23;20454;-57
2023/10/24 00:17:14;;;;;;;6.40;3.75;;;9.90;99.90;;;;;;25090397;23;20099;-57
2023/10/24 00:27:16;;;;;;;6.82;3.67;;;9.90;99.90;;;;;;25089886;23;20010;-49
2023/10/24 00:37:18;;;;;;;8.13;3.80;;;10.10;99.90;;;;;;25089415;23;20011;-58
2023/10/24 00:47:19;;;;;;;4.85;3.17;;;10.10;99.90;;;;;;25288218;23;20361;-54
2023/10/24 00:57:21;;;;;;;4.25;3.42;;;10.20;99.90;;;;;;25340960;23;20080;-53
2023/10/24 01:07:23;;;;;;;6.45;3.63;;;10.20;99.90;;;;;;25340560;23;20010;-53
2023/10/24 01:17:25;;;;;;;5.70;4.70;;;10.20;99.90;;;;;;25340378;23;20001;-51
2023/10/24 01:27:27;;;;;;;6.78;4.80;;;10.30;99.90;;;;;;25339511;23;20353;-53
2023/10/24 01:37:29;;;;;;;7.25;4.53;;;10.30;99.90;;;;;;25313519;23;20060;-57
2023/10/24 01:47:31;;;;;;;6.53;4.78;;;10.40;99.90;;;;;;25339060;23;20465;-52
2023/10/24 01:57:33;;;;;;;7.70;4.43;;;10.50;99.90;;;;;;25312750;23;20014;-58
2023/10/24 02:07:34;;;;;;;11.68;5.30;;;10.60;99.90;;;;;;25312637;23;20013;-49
2023/10/24 02:17:36;;;;;;;10.13;5.93;;;10.70;99.90;;;;;;25339073;23;20010;-49
2023/10/24 02:27:38;;;;;;;277.50;13.07;;;10.80;99.90;;;;;;25338420;23;20025;-51
2023/10/24 02:37:40;;;;;;;9.32;5.18;;;10.90;99.90;;;;;;25338481;23;20006;-54
2023/10/24 02:47:42;;;;;;;172.18;9.30;;;10.90;99.90;;;;;;25312398;23;20009;-59
2023/10/24 02:57:43;;;;;;;107.85;7.57;;;10.90;99.90;;;;;;25338116;23;20073;-51
2023/10/24 03:07:45;;;;;;;24.65;3.85;;;11.00;99.90;;;;;;25343799;23;20013;-58
2023/10/24 03:17:47;;;;;;;235.93;9.25;;;11.00;99.90;;;;;;25344461;23;20441;-58
2023/10/24 03:27:53;;;;;;;3.40;3.10;;;11.10;99.90;;;;;;25317470;23;20446;-57
2023/10/24 03:37:54;;;;;;;72.97;3.67;;;11.10;99.90;;;;;;25383498;23;20002;-57
2023/10/24 03:47:56;;;;;;;18.45;2.83;;;11.20;99.90;;;;;;25342833;23;20010;-56
2023/10/24 03:57:58;;;;;;;61.75;3.17;;;11.40;99.90;;;;;;25342246;23;20022;-58
2023/10/24 04:08:01;;;;;;;30.52;1.55;;;11.40;99.90;;;;;;25341907;23;20005;-57
2023/10/24 04:18:03;;;;;;;32.83;0.93;;;11.50;99.90;;;;;;25341346;23;20009;-57
2023/10/24 04:28:05;;;;;;;106.38;3.33;;;11.50;99.90;;;;;;25341113;23;20593;-52
2023/10/24 04:38:07;;;;;;;43.08;1.48;;;11.50;99.90;;;;;;25340799;23;20010;-57
2023/10/24 04:48:08;;;;;;;0.00;0.00;;;11.50;99.90;;;;;;25340616;23;20013;-48
2023/10/24 04:58:10;;;;;;;10.13;0.20;;;11.50;99.90;;;;;;25339618;23;20430;-57
2023/10/24 05:08:12;;;;;;;9.85;0.65;;;11.50;99.90;;;;;;25339553;23;20009;-57
2023/10/24 05:18:14;;;;;;;203.98;6.60;;;11.50;99.90;;;;;;25339215;23;20495;-52
2023/10/24 05:28:15;;;;;;;1.23;0.20;;;11.40;99.90;;;;;;25338898;23;20006;-57
2023/10/24 05:38:20;;;;;;;95.85;2.97;;;11.50;99.90;;;;;;25338652;23;20006;-51
2023/10/24 05:48:22;;;;;;;1.45;0.10;;;11.50;99.90;;;;;;25338333;23;20021;-52
2023/10/24 05:58:24;;;;;;;9.52;0.20;;;11.50;99.90;;;;;;25339727;23;20013;-57
2023/10/24 06:08:25;;;;;;;1.25;0.10;;;11.50;99.90;;;;;;25338114;23;20010;-57
2023/10/24 06:18:27;;;;;;;103.07;2.25;;;11.50;99.90;;;;;;25338350;23;20002;-54
2023/10/24 06:28:29;;;;;;;105.10;2.35;;;11.50;99.90;;;;;;25337429;23;20064;-49
2023/10/24 06:38:31;;;;;;;14.55;0.35;;;11.60;99.90;;;;;;25340108;23;20006;-56
2023/10/24 06:48:34;;;;;;;45.30;0.98;;;11.60;99.90;;;;;;25344749;23;20037;-57
2023/10/24 06:58:37;;;;;;;19.17;0.32;;;11.60;99.90;;;;;;25346773;23;20014;-53
2023/10/24 07:08:40;;;;;;;17.60;0.30;;;11.50;99.90;;;;;;25344288;23;20018;-58
2023/10/24 07:18:42;;;;;;;82.53;1.90;;;11.50;99.90;;;;;;25344034;23;20191;-58
2023/10/24 07:28:43;;;;;;;10.80;0.22;;;11.50;99.90;;;;;;25343763;23;20078;-58
2023/10/24 07:38:45;;;;;;;9.02;0.10;;;11.50;99.90;;;;;;25343339;23;20327;-58
2023/10/24 07:48:49;;;;;;;31.25;0.50;;;11.50;99.90;;;;;;25342133;23;20009;-54
2023/10/24 07:58:51;;;;;;;3.15;0.05;;;11.50;99.90;;;;;;25316804;23;20381;-58
2023/10/24 08:08:53;;;;;;;0.10;0.00;;;11.50;99.90;;;;;;25342064;23;20014;-58
2023/10/24 08:18:54;;;;;;;16.65;0.30;;;11.50;99.90;;;;;;25341985;23;20002;-58
2023/10/24 08:28:56;;;;;;;2.00;0.10;;;11.60;99.90;;;;;;25315311;23;20061;-58
2023/10/24 08:38:58;;;;;;;6.50;0.15;;;11.60;99.90;;;;;;25341284;23;20354;-58
2023/10/24 08:49:03;;;;;;;170.35;4.32;;;11.60;99.90;;;;;;25341235;23;20002;-57
2023/10/24 08:59:08;;;;;;;0.47;0.00;;;11.60;99.90;;;;;;25340253;23;20022;-53
2023/10/24 09:09:10;;;;;;;173.70;4.32;;;11.60;99.90;;;;;;25339949;23;20009;-57
2023/10/24 09:19:15;;;;;;;141.02;3.40;;;11.70;99.90;;;;;;25340065;23;20006;-50
2023/10/24 09:29:18;;;;;;;14.82;0.30;;;11.70;99.90;;;;;;25339117;23;20041;-58
2023/10/24 09:39:20;;;;;;;6.93;0.15;;;11.80;99.90;;;;;;25338518;23;20465;-58
2023/10/24 09:49:22;;;;;;;0.00;0.00;;;12.00;99.90;;;;;;25338782;23;20061;-50
2023/10/24 09:59:26;;;;;;;0.05;0.05;;;12.10;99.90;;;;;;25338035;23;20009;-54
2023/10/24 10:09:28;;;;;;;44.03;0.80;;;12.40;99.90;;;;;;25338277;23;20061;-58
2023/10/24 10:19:39;;;;;;;7.82;0.10;;;12.30;99.90;;;;;;25347599;23;20057;-48
2023/10/24 10:29:51;;;;;;;180.00;3.88;;;12.10;99.90;;;;;;25385894;23;20344;-58
2023/10/24 10:40:14;;;;;;;87.03;1.85;;;11.90;99.90;;;;;;25385663;23;20160;-53
2023/10/24 10:50:30;;;;;;;124.88;2.90;;;11.80;99.90;;;;;;25383932;23;20438;-52
2023/10/24 11:00:54;;;;;;;231.07;5.55;;;11.80;99.90;;;;;;25353358;23;20042;-58
2023/10/24 11:11:00;;;;;;;10.63;0.15;;;11.80;99.90;;;;;;24972792;23;20015;-58
2023/10/24 11:21:07;;;;;;;0.60;0.10;;;11.90;99.90;;;;;;24972500;23;20019;-50
2023/10/24 11:31:19;;;;;;;0.50;0.10;;;12.00;99.90;;;;;;24977302;23;20015;-58
2023/10/24 11:41:21;;;;;;;0.80;0.00;;;12.40;99.90;;;;;;25276793;23;20009;-49
2023/10/24 11:51:25;;;;;;;0.57;0.00;;;12.40;99.90;;;;;;25342411;23;20489;-51
2023/10/24 12:01:31;;;;;;;78.88;1.60;;;12.50;99.90;;;;;;25341925;23;20013;-59
2023/10/24 12:11:34;;;;;;;1.30;0.10;;;12.40;99.90;;;;;;25382287;23;20017;-59
2023/10/24 12:21:36;;;;;;;0.10;0.00;;;12.30;99.90;;;;;;25342689;23;20002;-50
2023/10/24 12:31:39;;;;;;;4.90;0.30;;;12.60;99.90;;;;;;25341334;23;20032;-60
2023/10/24 12:41:41;;;;;;;1.48;0.40;;;12.50;99.90;;;;;;25340540;23;20002;-58
2023/10/24 12:51:44;;;;;;;1.05;0.50;;;12.40;99.90;;;;;;25340559;23;20006;-52
2023/10/24 13:01:46;;;;;;;0.22;0.10;;;12.30;99.90;;;;;;25340160;23;20010;-52
2023/10/24 13:11:48;;;;;;;2.33;0.20;;;12.30;99.90;;;;;;25341108;23;20009;-53
2023/10/24 13:21:51;;;;;;;0.10;0.10;;;12.20;99.90;;;;;;25339549;23;20010;-52
2023/10/24 13:31:55;;;;;;;54.63;2.20;;;12.40;99.90;;;;;;25339118;23;20446;-58
2023/10/24 13:41:56;;;;;;;1.60;0.60;;;12.30;99.90;;;;;;25338234;23;20006;-52
2023/10/24 13:51:58;;;;;;;71.75;2.50;;;12.20;99.90;;;;;;25338538;23;20515;-55
2023/10/24 14:02:00;;;;;;;1.48;0.40;;;12.00;99.90;;;;;;25338489;23;20428;-58
2023/10/24 14:12:04;;;;;;;250.75;7.72;;;11.70;99.90;;;;;;25338085;23;20033;-54
2023/10/24 14:22:06;;;;;;;245.38;6.45;;;11.50;99.90;;;;;;25337819;23;20010;-53
2023/10/24 14:32:08;;;;;;;70.03;2.13;;;11.30;99.90;;;;;;25337030;23;20010;-53
2023/10/24 14:42:09;;;;;;;139.35;4.05;;;11.30;99.90;;;;;;25338770;23;20080;-51
2023/10/24 14:52:11;;;;;;;26.52;1.27;;;11.30;99.90;;;;;;25337588;23;20326;-59
2023/10/24 15:02:13;;;;;;;292.80;7.43;;;11.20;99.90;;;;;;25342128;23;20018;-52
2023/10/24 15:12:15;;;;;;;139.02;3.70;;;11.20;99.90;;;;;;25344772;23;20017;-53
2023/10/24 15:22:17;;;;;;;163.48;4.05;;;11.10;99.90;;;;;;25344223;23;20006;-55
2023/10/24 15:32:25;;;;;;;174.13;4.93;;;11.10;99.90;;;;;;25343639;23;20034;-52
2023/10/24 15:42:27;;;;;;;871.25;27.15;;;11.20;99.90;;;;;;25383933;23;20066;-58
2023/10/24 15:52:29;;;;;;;506.17;16.02;;;11.10;99.90;;;;;;25343339;23;20006;-58
2023/10/24 16:02:31;;;;;;;570.00;16.83;;;11.00;99.90;;;;;;25342594;23;20010;-53
2023/10/24 16:12:34;;;;;;;26.65;2.70;;;10.90;99.90;;;;;;25341982;23;20010;-58
2023/10/24 16:22:35;;;;;;;463.00;15.55;;;10.90;99.90;;;;;;25342573;23;20433;-56
2023/10/24 16:32:38;;;;;;;630.35;17.67;;;10.80;99.90;;;;;;25341671;23;20006;-51
2023/10/24 16:42:39;;;;;;;881.35;25.48;;;10.80;99.90;;;;;;25341474;23;20009;-53
2023/10/24 16:52:41;;;;;;;563.47;14.95;;;10.80;99.90;;;;;;25341214;23;20006;-58
2023/10/24 17:02:43;;;;;;;207.15;8.82;;;10.80;99.90;;;;;;25340933;23;20022;-58
2023/10/24 17:12:46;;;;;;;215.45;6.68;;;10.80;99.90;;;;;;25314101;23;20018;-58
2023/10/24 17:22:48;;;;;;;25.85;2.60;;;10.80;99.90;;;;;;25340098;23;20013;-51
2023/10/24 17:32:52;;;;;;;470.23;11.57;;;10.80;99.90;;;;;;25339737;23;20397;-53
2023/10/24 17:42:54;;;;;;;54.92;2.22;;;10.90;99.90;;;;;;25339351;23;20017;-53
2023/10/24 17:52:58;;;;;;;303.27;7.90;;;10.90;99.90;;;;;;25338779;23;20006;-51
2023/10/24 18:03:00;;;;;;;169.82;4.57;;;10.90;99.90;;;;;;25379446;23;20090;-54
2023/10/24 18:13:05;;;;;;;198.00;5.82;;;10.90;99.90;;;;;;25338473;23;20006;-52
2023/10/24 18:23:07;;;;;;;205.38;4.72;;;10.90;99.90;;;;;;25338500;23;20034;-58
2023/10/24 18:33:10;;;;;;;175.43;5.00;;;10.80;99.90;;;;;;25341615;23;20326;-58
2023/10/24 18:43:12;;;;;;;360.90;8.90;;;10.80;99.90;;;;;;25346055;23;20006;-53
2023/10/24 18:53:13;;;;;;;160.80;4.47;;;10.60;99.90;;;;;;25346107;23;20069;-53
2023/10/24 19:03:18;;;;;;;194.48;5.60;;;10.50;99.90;;;;;;25345571;23;20010;-57
2023/10/24 19:13:21;;;;;;;414.77;11.60;;;10.50;99.90;;;;;;25343754;23;20014;-52
2023/10/24 19:23:24;;;;;;;5.30;2.80;;;10.50;99.90;;;;;;25344621;23;20009;-57
2023/10/24 19:33:27;;;;;;;437.40;17.85;;;10.50;99.90;;;;;;25344290;23;20045;-57
2023/10/24 19:43:29;;;;;;;1.83;0.60;;;10.40;99.90;;;;;;25343577;23;20006;-57
2023/10/24 19:53:32;;;;;;;541.95;21.17;;;10.50;99.90;;;;;;25343261;23;20013;-51
2023/10/24 20:03:35;;;;;;;110.32;10.55;;;10.40;99.90;;;;;;25343309;23;20009;-53
2023/10/24 20:13:37;;;;;;;189.52;12.18;;;10.40;99.90;;;;;;25342539;23;20512;-49
2023/10/24 20:23:39;;;;;;;2.65;1.23;;;10.30;99.90;;;;;;25342438;23;20010;-51
2023/10/24 20:33:41;;;;;;;1.83;0.85;;;10.20;99.90;;;;;;25342138;23;20030;-58
2023/10/24 20:43:43;;;;;;;6.53;1.08;;;10.10;99.90;;;;;;25341377;23;20417;-58
2023/10/24 20:53:45;;;;;;;1.65;0.50;;;10.10;99.90;;;;;;25340058;23;20014;-60
2023/10/24 21:03:46;;;;;;;1.95;0.80;;;10.00;99.90;;;;;;25335953;23;20036;-50
2023/10/24 21:13:48;;;;;;;4.95;1.60;;;10.10;99.90;;;;;;25335713;23;20014;-52
2023/10/24 21:23:50;;;;;;;4.47;0.65;;;10.10;99.90;;;;;;25335754;23;20010;-51
2023/10/24 21:33:52;;;;;;;0.20;0.10;;;10.00;99.90;;;;;;25335462;23;20029;-58
2023/10/24 21:43:54;;;;;;;1.13;0.40;;;10.00;99.90;;;;;;25335210;23;20006;-50
2023/10/24 21:53:55;;;;;;;1.02;0.28;;;10.00;99.90;;;;;;25275512;23;1408358;-51
2023/10/24 22:03:57;;;;;;;1.17;0.22;;;9.90;99.90;;;;;;25339387;23;20037;-54
2023/10/24 22:13:59;;;;;;;0.22;0.20;;;9.80;99.90;;;;;;25312899;23;20006;-53
2023/10/24 22:24:01;;;;;;;1.63;0.40;;;9.80;99.90;;;;;;25338702;23;20005;-48
2023/10/24 22:34:02;;;;;;;2.03;0.30;;;9.70;99.90;;;;;;25337398;23;20010;-48
2023/10/24 22:44:04;;;;;;;1.20;0.30;;;9.80;99.90;;;;;;25339671;23;20374;-58
2023/10/24 22:54:06;;;;;;;0.45;0.22;;;9.80;99.90;;;;;;25338454;23;20010;-49
2023/10/24 23:04:08;;;;;;;2.40;0.50;;;9.80;99.90;;;;;;25338094;23;20014;-57
2023/10/24 23:14:09;;;;;;;1.50;0.40;;;9.80;99.90;;;;;;25337814;23;20017;-58
2023/10/24 23:24:11;;;;;;;0.40;0.10;;;9.70;99.90;;;;;;25342945;23;20009;-59
2023/10/24 23:34:13;;;;;;;0.30;0.10;;;9.80;99.90;;;;;;25344657;23;20010;-59
2023/10/24 23:44:15;;;;;;;0.15;0.00;;;10.00;99.90;;;;;;25344066;23;20006;-60
2023/10/24 23:54:16;;;;;;;0.90;0.00;;;10.30;99.90;;;;;;25343463;23;20020;-61
